Airfield :
LOGIN :

Register | Disclaimer

   EN    FR    IT 

 










Legend :    VFR   Marginal VFR   IFR   Intensive IFR   Very Intensive IFR
Visi :
Ceiling :
>= 8 km
>= 3000ft
5 to 8 km
1000 to 3000 ft
1500m to 5 km
500 to 1000 ft
800 to 1500m
200 to 500 ft
< 800m
< 200 ft
Symbols :   Thunderstorms  Fog  Heavy snow  Heavy precipitations  Wind > 20 kt
SIGMETs :     Misc.  Thunderstorms  Icing  Turbulence  Mountain Waves  Volcanic Ashes






- Airport Elevation : 1299 ft


EDTY - Adolf Würth

CURRENT METAR :
  • 301220Z 05003KT 8000 FEW008 BKN015 OVC020 06/04 Q1020

EXPIRED METARs :
  • 301150Z VRB02KT 7000 SCT011 BKN018 OVC023 06/04 Q1020
  • 301120Z VRB02KT 6000 BKN008 OVC020 05/04 Q1021
  • 301050Z 10002KT 6000 BKN007 OVC021 05/04 Q1021
  • 301020Z 09003KT 6000 BKN008 OVC020 05/04 Q1021
  • 300950Z 09003KT 070V130 6000 BKN008 OVC019 05/04 Q1021

TAF TAF EDTY
Valid from the 30 at 12:00 until the 30 at 21:00 UTC


301100Z 3012/3021 07003KT 6000 SCT008 BKN015
TEMPO 3012/3017 BKN008



MET'MAP, your aeronautical weather chart ! - Copyright ORBIFLY December 2007 - Disclaimer

ORBIFLY MET'MAP TEAM :

Programming & Development : Alexandra Zaïnal
Original concept : Baudouin d'Aumeries
Technical & hardware support : Manuel Goepfert
Assistance : Marc-Olivier Méhu




SOURCES & CREDITS :

   NOAA